createdAt,value
2022-09-28T00:02:01.409Z,13.40
2022-09-28T00:07:04.264Z,14.50
2022-09-28T00:12:07.184Z,15.40
2022-09-28T00:17:10.684Z,9.90
2022-09-28T00:22:13.443Z,9.90
2022-09-28T00:27:16.374Z,12.60
2022-09-28T00:32:21.297Z,12.20
2022-09-28T00:37:24.152Z,8.30
2022-09-28T00:42:26.999Z,6.10
2022-09-28T00:47:52.336Z,5.40
2022-09-28T00:53:05.234Z,4.60
2022-09-28T00:58:10.405Z,3.20
2022-09-28T01:03:14.654Z,3.70
2022-09-28T01:08:17.560Z,3.40
2022-09-28T01:13:20.732Z,3.40
2022-09-28T01:18:50.370Z,3.00
2022-09-28T01:24:38.385Z,2.80
2022-09-28T01:30:05.694Z,3.00
2022-09-28T01:35:16.120Z,2.90
2022-09-28T01:40:21.754Z,2.60
2022-09-28T01:45:29.433Z,2.80
2022-09-28T01:50:38.112Z,2.40
2022-09-28T01:55:48.160Z,2.40
2022-09-28T02:00:56.676Z,2.60
2022-09-28T02:06:06.102Z,2.00
2022-09-28T02:11:17.031Z,2.00
2022-09-28T02:16:43.022Z,1.30
2022-09-28T02:22:10.963Z,2.20
2022-09-28T02:27:34.351Z,1.30
2022-09-28T02:32:40.672Z,1.20
2022-09-28T02:37:43.803Z,1.30
2022-09-28T02:43:00.112Z,1.00
2022-09-28T02:48:35.929Z,1.20
2022-09-28T02:54:00.634Z,1.20
2022-09-28T02:59:33.390Z,1.30
2022-09-28T03:04:51.343Z,1.60
2022-09-28T03:10:12.451Z,2.40
2022-09-28T03:15:26.533Z,2.10
2022-09-28T03:20:30.916Z,1.70
2022-09-28T03:25:33.739Z,2.10
2022-09-28T03:30:36.638Z,1.90
2022-09-28T03:35:39.816Z,2.20
2022-09-28T03:40:43.051Z,2.40
2022-09-28T03:45:53.409Z,2.50
2022-09-28T03:50:57.519Z,2.60
2022-09-28T03:56:14.582Z,2.60
2022-09-28T04:01:18.179Z,2.70
2022-09-28T04:06:21.604Z,2.70
2022-09-28T04:11:24.374Z,2.70
2022-09-28T04:16:27.495Z,2.70
2022-09-28T04:21:30.407Z,5.20
2022-09-28T04:26:33.171Z,9.00
2022-09-28T04:31:52.396Z,7.10
2022-09-28T04:36:55.402Z,8.20
2022-09-28T04:41:58.544Z,8.50
2022-09-28T04:47:04.926Z,8.20
2022-09-28T04:52:08.354Z,8.80
2022-09-28T04:57:11.272Z,9.00
2022-09-28T05:02:15.305Z,9.10
2022-09-28T05:07:18.151Z,9.80
2022-09-28T05:12:21.642Z,9.00
2022-09-28T05:17:24.373Z,9.50
2022-09-28T05:22:27.217Z,9.70
2022-09-28T05:27:30.006Z,10.30
2022-09-28T05:32:32.918Z,9.50
2022-09-28T05:37:36.610Z,9.60
2022-09-28T05:42:39.750Z,9.70
2022-09-28T05:47:43.821Z,9.70
2022-09-28T05:52:46.931Z,10.10
2022-09-28T05:57:49.672Z,10.00
2022-09-28T06:03:01.410Z,9.60
2022-09-28T06:08:08.545Z,10.00
2022-09-28T06:13:12.198Z,8.90
2022-09-28T06:18:15.054Z,7.00
2022-09-28T06:23:17.949Z,7.30
2022-09-28T06:28:21.671Z,7.60
2022-09-28T06:33:26.149Z,7.40
2022-09-28T06:38:29.293Z,9.20
2022-09-28T06:43:34.584Z,9.30
2022-09-28T06:48:38.170Z,8.30
2022-09-28T06:53:40.948Z,8.40
2022-09-28T06:58:43.752Z,8.10
2022-09-28T07:03:46.591Z,11.10
2022-09-28T07:09:00.707Z,10.00
2022-09-28T07:14:23.139Z,8.20
2022-09-28T07:19:28.572Z,6.80
2022-09-28T07:24:31.375Z,6.40
2022-09-28T07:29:34.138Z,6.50
2022-09-28T07:34:41.283Z,8.00
2022-09-28T07:40:03.095Z,6.80
2022-09-28T07:45:07.088Z,7.20
2022-09-28T07:50:09.882Z,7.00
2022-09-28T07:55:12.698Z,7.50
2022-09-28T08:00:15.934Z,6.00
2022-09-28T08:05:18.966Z,6.80
2022-09-28T08:10:21.746Z,6.30
2022-09-28T08:15:24.570Z,6.50
2022-09-28T08:20:49.441Z,6.10
2022-09-28T08:25:54.467Z,6.20
2022-09-28T08:30:59.971Z,5.90
2022-09-28T08:36:04.468Z,5.60
2022-09-28T08:41:33.810Z,5.30
2022-09-28T08:46:45.222Z,5.00
2022-09-28T08:52:06.984Z,4.30
2022-09-28T08:57:19.504Z,5.10
2022-09-28T09:02:34.356Z,4.20
2022-09-28T09:08:08.944Z,4.20
2022-09-28T09:13:31.983Z,4.50
2022-09-28T09:18:52.576Z,4.60
2022-09-28T09:23:57.260Z,4.20
2022-09-28T09:29:06.400Z,4.10
2022-09-28T09:34:43.971Z,3.50
2022-09-28T09:40:32.664Z,3.20
2022-09-28T09:46:01.250Z,2.90
2022-09-28T09:51:24.980Z,3.50
2022-09-28T09:56:39.450Z,2.70
2022-09-28T10:01:42.433Z,2.90
2022-09-28T10:06:45.678Z,2.60
2022-09-28T10:11:51.979Z,2.40
2022-09-28T10:16:56.310Z,2.30
2022-09-28T10:22:02.697Z,2.20
2022-09-28T10:27:08.758Z,1.80
2022-09-28T10:32:36.769Z,1.80
2022-09-28T10:38:15.624Z,2.00
2022-09-28T10:43:38.626Z,1.80
2022-09-28T10:48:55.453Z,1.90
2022-09-28T10:54:02.577Z,2.10
2022-09-28T10:59:29.553Z,1.60
2022-09-28T11:04:42.752Z,1.60
2022-09-28T11:09:48.846Z,1.40
2022-09-28T11:15:03.834Z,1.50
2022-09-28T11:20:27.950Z,1.40
2022-09-28T11:25:31.562Z,1.10
2022-09-28T11:30:42.796Z,1.00
2022-09-28T11:36:00.896Z,0.90
2022-09-28T11:41:46.420Z,1.50
2022-09-28T11:46:55.269Z,1.00
2022-09-28T11:52:03.605Z,1.10
2022-09-28T11:57:06.451Z,1.10
2022-09-28T12:02:38.748Z,1.00
2022-09-28T12:08:07.087Z,1.00
2022-09-28T12:13:13.426Z,1.20
2022-09-28T12:18:30.477Z,1.20
2022-09-28T12:23:35.861Z,1.30
2022-09-28T12:28:42.333Z,1.30
2022-09-28T12:33:48.053Z,0.80
2022-09-28T12:39:24.017Z,1.50
2022-09-28T12:44:55.911Z,1.20
2022-09-28T12:56:09.348Z,0.70
2022-09-28T13:01:21.085Z,0.60
2022-09-28T13:06:45.803Z,0.70
2022-09-28T13:12:34.278Z,0.80
2022-09-28T13:17:45.123Z,0.70
2022-09-28T13:23:45.574Z,0.80
2022-09-28T13:28:48.308Z,0.90
2022-09-28T13:33:51.086Z,1.10
2022-09-28T13:38:55.183Z,0.90
2022-09-28T13:44:13.285Z,1.00
2022-09-28T13:49:24.987Z,1.10
2022-09-28T13:55:05.650Z,1.30
2022-09-28T14:00:11.933Z,1.30
2022-09-28T14:05:25.073Z,1.10
2022-09-28T14:10:54.043Z,1.10
2022-09-28T14:16:22.271Z,0.90
2022-09-28T14:22:14.576Z,1.00
2022-09-28T14:27:17.346Z,1.10
2022-09-28T14:32:24.846Z,1.00
2022-09-28T14:37:50.548Z,1.10
2022-09-28T14:43:36.751Z,1.00
2022-09-28T14:49:04.070Z,1.00
2022-09-28T14:54:12.463Z,1.10
2022-09-28T14:59:22.835Z,1.20
2022-09-28T15:04:28.215Z,1.10
2022-09-28T15:09:32.377Z,1.20
2022-09-28T15:14:41.375Z,1.50
2022-09-28T15:19:51.183Z,1.20
2022-09-28T15:25:02.436Z,2.40
2022-09-28T15:30:31.944Z,1.80
2022-09-28T15:35:35.811Z,1.80
2022-09-28T15:40:38.605Z,3.00
2022-09-28T15:45:43.514Z,3.30
2022-09-28T15:51:11.031Z,3.00
2022-09-28T15:56:14.728Z,2.70
2022-09-28T16:01:35.982Z,2.50
2022-09-28T16:06:41.142Z,2.90
2022-09-28T16:11:43.847Z,3.30
2022-09-28T16:16:51.866Z,4.10
2022-09-28T16:22:02.635Z,4.80
2022-09-28T16:27:27.819Z,4.70
2022-09-28T16:32:41.817Z,4.10
2022-09-28T16:37:44.877Z,2.80
2022-09-28T16:42:49.323Z,2.60
2022-09-28T16:47:53.180Z,2.60
2022-09-28T16:53:33.360Z,2.50
2022-09-28T16:58:39.214Z,2.30
2022-09-28T17:03:46.801Z,2.30
2022-09-28T17:08:49.637Z,2.80
2022-09-28T17:13:57.231Z,3.80
2022-09-28T17:19:01.124Z,3.70
2022-09-28T17:24:05.097Z,4.20
2022-09-28T17:29:09.879Z,7.60
2022-09-28T17:34:19.608Z,8.90
2022-09-28T17:39:25.086Z,7.40
2022-09-28T17:44:28.490Z,6.80
2022-09-28T17:49:31.237Z,6.30
2022-09-28T17:54:34.343Z,5.50
2022-09-28T17:59:37.029Z,5.40
2022-09-28T18:04:51.910Z,6.50
2022-09-28T18:09:56.841Z,7.20
2022-09-28T18:14:59.546Z,5.90
2022-09-28T18:20:02.375Z,5.80
2022-09-28T18:25:07.563Z,5.50
2022-09-28T18:30:10.844Z,6.70
2022-09-28T18:35:13.584Z,6.50
2022-09-28T18:40:16.352Z,7.20
2022-09-28T18:45:19.671Z,6.80
2022-09-28T18:50:22.459Z,6.40
2022-09-28T18:55:25.254Z,5.20
2022-09-28T19:00:27.938Z,5.10
2022-09-28T19:05:30.731Z,5.00
2022-09-28T19:10:33.902Z,5.10
2022-09-28T19:15:37.053Z,4.20
2022-09-28T19:20:40.312Z,4.10
2022-09-28T19:25:43.042Z,4.20
2022-09-28T19:30:45.881Z,3.80
2022-09-28T19:36:20.665Z,3.60
2022-09-28T19:41:43.755Z,3.90
2022-09-28T19:46:47.385Z,4.70
2022-09-28T19:57:16.084Z,4.20
2022-09-28T20:02:19.208Z,3.70
2022-09-28T20:07:22.003Z,3.10
2022-09-28T20:12:24.739Z,3.60
2022-09-28T20:17:27.764Z,3.30
2022-09-28T20:22:31.125Z,3.60
2022-09-28T20:27:33.881Z,3.50
2022-09-28T20:32:37.729Z,4.20
2022-09-28T20:37:40.706Z,3.80
2022-09-28T20:42:45.861Z,3.90
2022-09-28T20:47:48.659Z,4.10
2022-09-28T20:52:51.389Z,4.40
2022-09-28T20:57:54.636Z,4.00
2022-09-28T21:02:57.610Z,4.30
2022-09-28T21:08:00.465Z,5.40
2022-09-28T21:13:03.279Z,5.00
2022-09-28T21:18:06.381Z,4.90
2022-09-28T21:23:09.136Z,4.40
2022-09-28T21:28:13.669Z,4.50
2022-09-28T21:33:16.351Z,4.20
2022-09-28T21:38:19.063Z,4.90
2022-09-28T21:43:21.764Z,5.40
2022-09-28T21:48:26.133Z,4.60
2022-09-28T21:53:31.685Z,4.50
2022-09-28T21:58:35.434Z,5.20
2022-09-28T22:03:38.192Z,5.70
2022-09-28T22:08:40.962Z,5.40
2022-09-28T22:13:58.272Z,5.90
2022-09-28T22:19:01.113Z,7.90
2022-09-28T22:24:07.050Z,8.90
2022-09-28T22:29:10.144Z,10.90
2022-09-28T22:34:12.840Z,12.90
2022-09-28T22:39:15.591Z,13.70
2022-09-28T22:44:19.764Z,11.10
2022-09-28T22:49:22.751Z,10.70
2022-09-28T22:54:25.718Z,11.40
2022-09-28T22:59:28.452Z,11.60
2022-09-28T23:04:32.349Z,11.20
2022-09-28T23:09:35.058Z,10.40
2022-09-28T23:14:37.801Z,9.70
2022-09-28T23:19:40.524Z,9.50
2022-09-28T23:24:43.255Z,9.90
2022-09-28T23:29:48.839Z,9.80
2022-09-28T23:34:51.536Z,10.20
2022-09-28T23:39:54.320Z,10.80
2022-09-28T23:44:58.198Z,11.10
2022-09-28T23:50:00.933Z,10.80
2022-09-28T23:55:04.032Z,9.80
